createdAt,value
2022-08-02T00:00:10.985Z,99307.91
2022-08-02T00:02:40.843Z,99309.00
2022-08-02T00:05:08.307Z,99301.63
2022-08-02T00:07:39.135Z,99306.03
2022-08-02T00:10:08.437Z,99310.66
2022-08-02T00:12:35.314Z,99306.81
2022-08-02T00:15:05.642Z,99304.91
2022-08-02T00:17:32.476Z,99302.75
2022-08-02T00:19:59.516Z,99305.47
2022-08-02T00:22:26.310Z,99300.56
2022-08-02T00:24:54.522Z,99305.47
2022-08-02T00:27:21.371Z,99304.38
2022-08-02T00:29:52.656Z,99301.38
2022-08-02T00:32:22.099Z,99298.88
2022-08-02T00:34:49.193Z,99301.06
2022-08-02T00:37:15.987Z,99296.44
2022-08-02T00:39:43.231Z,99293.16
2022-08-02T00:42:10.992Z,99295.34
2022-08-02T00:44:39.998Z,99290.72
2022-08-02T00:47:06.948Z,99293.97
2022-08-02T00:49:34.017Z,99295.06
2022-08-02T00:52:01.113Z,99300.78
2022-08-02T00:54:30.922Z,99301.59
2022-08-02T00:56:57.914Z,99302.69
2022-08-02T00:59:24.720Z,99296.69
2022-08-02T01:01:55.838Z,99291.78
2022-08-02T01:04:29.747Z,99296.09
2022-08-02T01:06:57.745Z,99294.47
2022-08-02T01:09:24.572Z,99296.63
2022-08-02T01:11:51.406Z,99296.06
2022-08-02T01:14:21.281Z,99289.53
2022-08-02T01:16:53.489Z,99291.72
2022-08-02T01:19:39.271Z,99282.47
2022-08-02T01:22:18.037Z,99292.50
2022-08-02T01:25:06.494Z,99285.69
2022-08-02T01:27:33.299Z,99289.44
2022-08-02T01:30:00.928Z,99284.81
2022-08-02T01:32:28.853Z,99283.97
2022-08-02T01:34:57.170Z,99288.84
2022-08-02T01:37:33.155Z,99292.66
2022-08-02T01:40:04.238Z,99294.28
2022-08-02T01:42:33.279Z,99292.38
2022-08-02T01:45:00.127Z,99297.81
2022-08-02T01:47:28.744Z,99299.75
2022-08-02T01:49:57.918Z,99294.84
2022-08-02T01:52:26.538Z,99302.75
2022-08-02T01:55:01.615Z,99304.16
2022-08-02T01:57:42.074Z,99303.63
2022-08-02T02:00:10.713Z,99305.28
2022-08-02T02:02:38.206Z,99310.22
2022-08-02T02:05:05.986Z,99308.56
2022-08-02T02:07:34.015Z,99307.50
2022-08-02T02:10:00.975Z,99299.91
2022-08-02T02:12:27.868Z,99311.28
2022-08-02T02:15:14.749Z,99310.22
2022-08-02T02:17:53.101Z,99318.41
2022-08-02T02:20:33.333Z,99308.91
2022-08-02T02:23:00.183Z,99301.03
2022-08-02T02:25:35.900Z,99302.69
2022-08-02T02:28:12.030Z,99313.59
2022-08-02T02:30:39.339Z,99306.50
2022-08-02T02:33:06.434Z,99307.34
2022-08-02T02:35:34.560Z,99309.75
2022-08-02T02:38:01.655Z,99309.75
2022-08-02T02:40:28.931Z,99308.13
2022-08-02T02:42:56.758Z,99310.06
2022-08-02T02:45:23.665Z,99306.50
2022-08-02T02:47:50.746Z,99305.13
2022-08-02T02:50:17.796Z,99309.00
2022-08-02T02:52:44.580Z,99298.66
2022-08-02T02:55:11.604Z,99302.50
2022-08-02T02:57:38.482Z,99298.94
2022-08-02T03:00:14.700Z,99298.91
2022-08-02T03:02:45.187Z,99301.66
2022-08-02T03:05:12.256Z,99297.84
2022-08-02T03:07:39.032Z,99303.84
2022-08-02T03:10:06.478Z,99306.00
2022-08-02T03:12:36.584Z,99300.00
2022-08-02T03:15:08.043Z,99304.06
2022-08-02T03:17:38.888Z,99304.63
2022-08-02T03:20:09.900Z,99294.78
2022-08-02T03:22:37.998Z,99302.66
2022-08-02T03:25:07.613Z,99305.06
2022-08-02T03:27:34.713Z,99295.53
2022-08-02T03:30:01.515Z,99296.59
2022-08-02T03:32:28.937Z,99298.75
2022-08-02T03:34:55.948Z,99296.03
2022-08-02T03:37:22.818Z,99303.41
2022-08-02T03:39:53.135Z,99305.28
2022-08-02T03:42:21.156Z,99297.66
2022-08-02T03:44:50.797Z,99303.69
2022-08-02T03:47:17.875Z,99315.72
2022-08-02T03:49:44.827Z,99306.69
2022-08-02T03:52:11.958Z,99312.44
2022-08-02T03:54:45.735Z,99319.50
2022-08-02T03:57:13.642Z,99315.91
2022-08-02T03:59:44.578Z,99318.88
2022-08-02T04:02:13.449Z,99312.56
2022-08-02T04:04:47.942Z,99320.19
2022-08-02T04:07:15.972Z,99324.19
2022-08-02T04:10:03.723Z,99315.63
2022-08-02T04:12:30.708Z,99315.00
2022-08-02T04:14:57.662Z,99314.94
2022-08-02T04:17:24.672Z,99315.13
2022-08-02T04:19:54.182Z,99309.84
2022-08-02T04:22:25.912Z,99319.28
2022-08-02T04:24:54.829Z,99312.94
2022-08-02T04:27:50.016Z,99318.31
2022-08-02T04:32:49.633Z,99316.25
2022-08-02T04:35:19.950Z,99316.47
2022-08-02T04:38:09.648Z,99313.09
2022-08-02T04:40:34.404Z,99314.59
2022-08-02T04:43:01.364Z,99313.75
2022-08-02T04:45:28.134Z,99317.75
2022-08-02T04:48:04.544Z,99324.03
2022-08-02T04:50:32.480Z,99329.94
2022-08-02T04:52:59.354Z,99318.41
2022-08-02T04:55:29.089Z,99326.38
2022-08-02T04:57:57.788Z,99319.25
2022-08-02T05:00:26.863Z,99322.78
2022-08-02T05:02:54.315Z,99319.78
2022-08-02T05:05:21.412Z,99320.72
2022-08-02T05:07:48.719Z,99321.69
2022-08-02T05:10:19.607Z,99315.75
2022-08-02T05:12:46.456Z,99318.63
2022-08-02T05:15:16.777Z,99312.06
2022-08-02T05:17:47.868Z,99315.91
2022-08-02T05:20:18.991Z,99314.44
2022-08-02T05:22:47.856Z,99314.50
2022-08-02T05:25:14.847Z,99314.22
2022-08-02T05:27:41.785Z,99315.31
2022-08-02T05:30:09.147Z,99311.56
2022-08-02T05:32:42.648Z,99309.75
2022-08-02T05:35:12.394Z,99306.56
2022-08-02T05:37:39.282Z,99310.16
2022-08-02T05:40:12.592Z,99310.94
2022-08-02T05:42:42.775Z,99312.13
2022-08-02T05:45:12.236Z,99307.63
2022-08-02T05:47:39.219Z,99304.34
2022-08-02T05:50:06.522Z,99304.69
2022-08-02T05:55:19.136Z,99303.16
2022-08-02T05:57:51.914Z,99306.72
2022-08-02T06:00:20.597Z,99301.03
2022-08-02T06:02:50.410Z,99303.97
2022-08-02T06:05:19.442Z,99296.50
2022-08-02T06:07:47.004Z,99299.75
2022-08-02T06:10:14.480Z,99298.19
2022-08-02T06:12:51.539Z,99301.41
2022-08-02T06:15:19.779Z,99304.06
2022-08-02T06:17:47.978Z,99298.88
2022-08-02T06:20:15.521Z,99292.81
2022-08-02T06:22:44.119Z,99292.81
2022-08-02T06:25:51.158Z,99290.09
2022-08-02T06:28:03.017Z,99289.66
2022-08-02T06:30:34.188Z,99283.50
2022-08-02T06:33:01.173Z,99290.41
2022-08-02T06:35:35.636Z,99288.06
2022-08-02T06:38:05.214Z,99283.16
2022-08-02T06:40:58.511Z,99290.53
2022-08-02T06:43:35.356Z,99285.69
2022-08-02T06:47:09.483Z,99286.97
2022-08-02T06:48:53.137Z,99288.41
2022-08-02T06:51:21.045Z,99287.84
2022-08-02T06:53:48.147Z,99281.41
2022-08-02T06:56:15.184Z,99278.16
2022-08-02T06:58:42.136Z,99279.31
2022-08-02T07:01:09.961Z,99278.16
2022-08-02T07:03:38.057Z,99281.41
2022-08-02T07:06:11.293Z,99292.59
2022-08-02T07:08:38.618Z,99283.03
2022-08-02T07:11:09.064Z,99279.16
2022-08-02T07:13:39.681Z,99276.34
2022-08-02T07:16:08.993Z,99279.59
2022-08-02T07:18:37.666Z,99278.00
2022-08-02T07:21:08.868Z,99271.63
2022-08-02T07:23:35.840Z,99270.50
2022-08-02T07:26:04.819Z,99272.44
2022-08-02T07:28:32.771Z,99271.63
2022-08-02T07:30:59.627Z,99269.69
2022-08-02T07:33:38.796Z,99276.03
2022-08-02T07:36:09.893Z,99277.00
2022-08-02T07:38:44.082Z,99264.69
2022-08-02T07:41:12.947Z,99263.88
2022-08-02T07:44:01.922Z,99268.72
2022-08-02T07:46:48.931Z,99279.25
2022-08-02T07:49:21.565Z,99283.63
2022-08-02T07:51:48.400Z,99281.84
2022-08-02T07:54:16.902Z,99280.19
2022-08-02T07:56:43.968Z,99270.91
2022-08-02T07:59:10.816Z,99272.00
2022-08-02T08:01:46.037Z,99279.34
2022-08-02T08:04:13.296Z,99268.22
2022-08-02T08:06:42.604Z,99266.63
2022-08-02T08:09:10.491Z,99264.31
2022-08-02T08:11:37.610Z,99265.78
2022-08-02T08:14:17.194Z,99270.03
2022-08-02T08:16:44.377Z,99259.75
2022-08-02T08:19:11.349Z,99246.97
2022-08-02T08:21:38.254Z,99257.22
2022-08-02T08:24:07.130Z,99259.09
2022-08-02T08:26:34.060Z,99253.19
2022-08-02T08:29:02.086Z,99251.19
2022-08-02T08:31:28.968Z,99250.31
2022-08-02T08:33:57.030Z,99246.44
2022-08-02T08:36:25.680Z,99255.72
2022-08-02T08:38:52.591Z,99253.41
2022-08-02T08:41:19.796Z,99246.75
2022-08-02T08:43:51.422Z,99252.53
2022-08-02T08:46:30.579Z,99235.16
2022-08-02T08:49:04.217Z,99247.91
2022-08-02T08:51:31.969Z,99232.00
2022-08-02T08:53:59.696Z,99245.72
2022-08-02T08:56:28.904Z,99242.41
2022-08-02T08:59:07.095Z,99233.53
2022-08-02T09:04:36.276Z,99217.56
2022-08-02T09:07:04.074Z,99228.25
2022-08-02T09:09:30.915Z,99243.34
2022-08-02T09:12:13.837Z,99229.13
2022-08-02T09:14:41.201Z,99229.81
2022-08-02T09:17:09.773Z,99225.44
2022-08-02T09:19:37.226Z,99217.25
2022-08-02T09:22:05.544Z,99226.34
2022-08-02T09:24:40.909Z,99224.00
2022-08-02T09:27:14.704Z,99224.38
2022-08-02T09:30:12.482Z,99227.63
2022-08-02T09:32:45.654Z,99221.16
2022-08-02T09:35:12.912Z,99220.81
2022-08-02T09:37:39.848Z,99220.66
2022-08-02T09:40:10.757Z,99228.69
2022-08-02T09:42:37.972Z,99208.09
2022-08-02T09:47:49.141Z,99228.59
2022-08-02T09:50:16.016Z,99226.66
2022-08-02T09:52:44.011Z,99223.56
2022-08-02T09:55:11.712Z,99229.53
2022-08-02T09:57:41.259Z,99220.56
2022-08-02T10:00:18.122Z,99217.88
2022-08-02T10:03:13.647Z,99209.41
2022-08-02T10:05:56.316Z,99218.34
2022-08-02T10:08:29.718Z,99226.06
2022-08-02T10:11:02.644Z,99223.44
2022-08-02T10:13:33.752Z,99220.25
2022-08-02T10:16:07.210Z,99223.06
2022-08-02T10:18:39.526Z,99222.59
2022-08-02T10:21:09.176Z,99216.44
2022-08-02T10:23:37.490Z,99218.47
2022-08-02T10:26:04.393Z,99217.94
2022-08-02T10:28:31.835Z,99210.94
2022-08-02T10:31:00.213Z,99207.19
2022-08-02T10:33:27.471Z,99199.81
2022-08-02T10:36:04.644Z,99218.78
2022-08-02T10:38:34.354Z,99201.63
2022-08-02T10:41:01.313Z,99214.13
2022-08-02T10:43:37.376Z,99210.72
2022-08-02T10:46:23.283Z,99205.47
2022-08-02T10:49:36.636Z,99210.09
2022-08-02T10:52:01.890Z,99203.44
2022-08-02T10:54:29.080Z,99205.19
2022-08-02T10:56:56.625Z,99194.19
2022-08-02T10:59:30.985Z,99202.72
2022-08-02T11:02:02.139Z,99191.59
2022-08-02T11:04:33.367Z,99205.63
2022-08-02T11:07:19.347Z,99195.78
2022-08-02T11:09:47.230Z,99200.75
2022-08-02T11:12:24.032Z,99195.44
2022-08-02T11:15:01.532Z,99193.94
2022-08-02T11:17:49.739Z,99189.75
2022-08-02T11:20:17.699Z,99190.03
2022-08-02T11:22:45.315Z,99185.25
2022-08-02T11:26:03.349Z,99190.16
2022-08-02T11:28:28.679Z,99178.56
2022-08-02T11:31:01.505Z,99188.72
2022-08-02T11:33:31.142Z,99185.97
2022-08-02T11:36:05.195Z,99199.09
2022-08-02T11:38:36.176Z,99195.63
2022-08-02T11:41:06.134Z,99196.72
2022-08-02T11:43:33.696Z,99190.47
2022-08-02T11:46:04.116Z,99191.53
2022-08-02T11:48:32.933Z,99183.59
2022-08-02T11:51:07.086Z,99179.69
2022-08-02T11:53:53.000Z,99184.75
2022-08-02T11:56:28.383Z,99195.19
2022-08-02T11:59:05.180Z,99198.19
2022-08-02T12:01:44.921Z,99196.88
2022-08-02T12:04:16.109Z,99195.47
2022-08-02T12:06:44.819Z,99196.38
2022-08-02T12:09:19.040Z,99192.09
2022-08-02T12:11:48.799Z,99193.25
2022-08-02T12:14:15.752Z,99202.06
2022-08-02T12:17:01.334Z,99196.78
2022-08-02T12:19:30.998Z,99195.38
2022-08-02T12:22:17.636Z,99205.56
2022-08-02T12:24:51.489Z,99186.31
2022-08-02T12:27:36.011Z,99188.44
2022-08-02T12:30:08.018Z,99188.41
2022-08-02T12:32:36.263Z,99185.88
2022-08-02T12:35:12.384Z,99178.69
2022-08-02T12:37:44.508Z,99188.69
2022-08-02T12:40:18.893Z,99169.22
2022-08-02T12:42:52.974Z,99171.78
2022-08-02T12:45:22.280Z,99173.50
2022-08-02T12:47:50.102Z,99179.38
2022-08-02T12:50:21.713Z,99183.34
2022-08-02T12:52:49.589Z,99187.84
2022-08-02T12:55:20.628Z,99172.75
2022-08-02T12:57:59.005Z,99173.38
2022-08-02T13:00:30.179Z,99174.28
2022-08-02T13:03:00.468Z,99180.28
2022-08-02T13:05:57.636Z,99168.66
2022-08-02T13:08:29.222Z,99158.88
2022-08-02T13:10:56.478Z,99164.84
2022-08-02T13:13:29.290Z,99160.47
2022-08-02T13:16:04.992Z,99163.63
2022-08-02T13:18:32.106Z,99170.78
2022-08-02T13:20:59.173Z,99167.19
2022-08-02T13:23:33.637Z,99168.88
2022-08-02T13:26:16.118Z,99163.38
2022-08-02T13:28:47.057Z,99163.34
2022-08-02T13:31:34.466Z,99162.25
2022-08-02T13:34:00.624Z,99167.75
2022-08-02T13:36:34.330Z,99154.88
2022-08-02T13:39:02.588Z,99150.44
2022-08-02T13:41:29.891Z,99150.28
2022-08-02T13:44:03.667Z,99148.84
2022-08-02T13:46:36.763Z,99144.81
2022-08-02T13:49:03.765Z,99149.06
2022-08-02T13:51:30.676Z,99142.09
2022-08-02T13:54:04.285Z,99137.78
2022-08-02T13:56:35.454Z,99143.16
2022-08-02T13:59:54.695Z,99143.03
2022-08-02T14:01:50.046Z,99141.66
2022-08-02T14:04:16.908Z,99141.56
2022-08-02T14:06:43.791Z,99136.25
2022-08-02T14:09:15.720Z,99135.72
2022-08-02T14:11:44.819Z,99132.25
2022-08-02T14:14:17.027Z,99139.59
2022-08-02T14:16:45.739Z,99128.19
2022-08-02T14:19:16.074Z,99123.88
2022-08-02T14:21:47.132Z,99137.66
2022-08-02T14:24:18.141Z,99126.00
2022-08-02T14:26:47.921Z,99143.09
2022-08-02T14:29:15.111Z,99134.63
2022-08-02T14:31:44.832Z,99135.22
2022-08-02T14:34:17.800Z,99137.44
2022-08-02T14:36:45.003Z,99138.56
2022-08-02T14:39:17.537Z,99129.56
2022-08-02T14:41:59.721Z,99134.13
2022-08-02T14:44:28.295Z,99133.56
2022-08-02T14:46:58.057Z,99131.66
2022-08-02T14:49:26.817Z,99132.41
2022-08-02T14:51:54.561Z,99125.22
2022-08-02T14:54:29.978Z,99133.63
2022-08-02T14:57:00.976Z,99133.81
2022-08-02T14:59:30.899Z,99134.13
2022-08-02T15:01:58.343Z,99127.91
2022-08-02T15:04:25.749Z,99132.50
2022-08-02T15:06:54.738Z,99129.91
2022-08-02T15:09:25.210Z,99126.13
2022-08-02T15:11:55.113Z,99126.03
2022-08-02T15:14:42.456Z,99121.00
2022-08-02T15:17:10.449Z,99127.56
2022-08-02T15:19:57.696Z,99131.00
2022-08-02T15:22:28.117Z,99130.75
2022-08-02T15:27:39.548Z,99127.16
2022-08-02T15:30:06.772Z,99130.56
2022-08-02T15:32:35.980Z,99129.88
2022-08-02T15:35:02.982Z,99122.56
2022-08-02T15:37:39.515Z,99129.16
2022-08-02T15:40:14.626Z,99121.66
2022-08-02T15:42:44.539Z,99128.78
2022-08-02T15:47:55.544Z,99116.28
2022-08-02T15:50:22.523Z,99123.28
2022-08-02T15:52:49.425Z,99114.69
2022-08-02T15:55:16.497Z,99112.81
2022-08-02T15:57:44.249Z,99120.56
2022-08-02T16:00:18.211Z,99118.88
2022-08-02T16:02:46.800Z,99112.66
2022-08-02T16:05:14.885Z,99112.06
2022-08-02T16:07:41.759Z,99118.84
2022-08-02T16:10:09.130Z,99125.63
2022-08-02T16:12:36.071Z,99128.78
2022-08-02T16:15:02.957Z,99132.22
2022-08-02T16:17:51.945Z,99129.00
2022-08-02T16:20:17.428Z,99120.16
2022-08-02T16:22:44.333Z,99132.28
2022-08-02T16:25:16.984Z,99131.06
2022-08-02T16:28:06.166Z,99124.84
2022-08-02T16:30:34.122Z,99123.34
2022-08-02T16:33:01.072Z,99134.16
2022-08-02T16:35:30.903Z,99133.16
2022-08-02T16:37:57.850Z,99136.59
2022-08-02T16:40:24.789Z,99135.34
2022-08-02T16:42:57.805Z,99134.41
2022-08-02T16:45:27.654Z,99139.72
2022-08-02T16:47:56.473Z,99142.44
2022-08-02T16:50:27.431Z,99141.59
2022-08-02T16:52:58.809Z,99147.22
2022-08-02T16:55:37.490Z,99142.00
2022-08-02T16:58:04.506Z,99153.25
2022-08-02T17:00:37.146Z,99155.44
2022-08-02T17:03:12.911Z,99155.75
2022-08-02T17:05:56.930Z,99156.00
2022-08-02T17:08:24.294Z,99159.72
2022-08-02T17:11:03.358Z,99160.31
2022-08-02T17:13:31.261Z,99162.16
2022-08-02T17:16:20.561Z,99159.47
2022-08-02T17:18:49.319Z,99166.97
2022-08-02T17:21:18.863Z,99173.50
2022-08-02T17:24:08.112Z,99174.59
2022-08-02T17:26:43.246Z,99171.44
2022-08-02T17:32:09.243Z,99169.72
2022-08-02T17:34:38.697Z,99177.66
2022-08-02T17:37:06.349Z,99183.66
2022-08-02T17:39:34.568Z,99177.53
2022-08-02T17:42:19.540Z,99180.63
2022-08-02T17:45:00.919Z,99180.44
2022-08-02T17:47:42.097Z,99176.84
2022-08-02T17:50:09.896Z,99180.41
2022-08-02T17:52:50.797Z,99178.25
2022-08-02T17:55:22.645Z,99179.72
2022-08-02T17:57:59.752Z,99181.66
2022-08-02T18:00:45.274Z,99180.66
2022-08-02T18:03:13.861Z,99180.59
2022-08-02T18:05:55.184Z,99181.91
2022-08-02T18:08:30.019Z,99173.44
2022-08-02T18:11:02.228Z,99181.66
2022-08-02T18:13:32.774Z,99176.44
2022-08-02T18:16:00.120Z,99178.47
2022-08-02T18:18:32.856Z,99181.84
2022-08-02T18:21:15.263Z,99185.09
2022-08-02T18:26:32.072Z,99181.09
2022-08-02T18:28:59.951Z,99178.81
2022-08-02T18:31:28.809Z,99167.63
2022-08-02T18:34:06.684Z,99171.28
2022-08-02T18:39:14.838Z,99172.63
2022-08-02T18:41:44.468Z,99176.91
2022-08-02T18:44:16.609Z,99174.13
2022-08-02T18:46:43.792Z,99180.16
2022-08-02T18:49:14.862Z,99181.91
2022-08-02T18:51:47.085Z,99179.56
2022-08-02T18:54:14.901Z,99184.66
2022-08-02T18:56:47.457Z,99182.03
2022-08-02T18:59:14.681Z,99182.78
2022-08-02T19:01:50.707Z,99175.28
2022-08-02T19:04:27.073Z,99186.38
2022-08-02T19:06:55.566Z,99184.34
2022-08-02T19:09:22.871Z,99183.91
2022-08-02T19:11:50.399Z,99187.88
2022-08-02T19:14:24.241Z,99192.84
2022-08-02T19:16:56.154Z,99192.03
2022-08-02T19:19:23.289Z,99197.94
2022-08-02T19:22:18.051Z,99193.03
2022-08-02T19:24:43.392Z,99193.75
2022-08-02T19:27:14.032Z,99190.41
2022-08-02T19:29:43.168Z,99184.91
2022-08-02T19:32:39.820Z,99188.91
2022-08-02T19:35:19.526Z,99185.63
2022-08-02T19:40:51.850Z,99187.88
2022-08-02T19:44:24.792Z,99193.34
2022-08-02T19:46:06.429Z,99189.91
2022-08-02T19:48:44.095Z,99202.28
2022-08-02T19:51:13.189Z,99199.94
2022-08-02T19:53:48.049Z,99200.53
2022-08-02T19:56:25.226Z,99200.44
2022-08-02T19:58:57.127Z,99209.59
2022-08-02T20:01:36.547Z,99202.31
2022-08-02T20:04:05.607Z,99210.00
2022-08-02T20:06:33.219Z,99200.47
2022-08-02T20:09:01.401Z,99201.00
2022-08-02T20:11:34.949Z,99202.19
2022-08-02T20:14:05.055Z,99211.44
2022-08-02T20:16:32.813Z,99207.06
2022-08-02T20:19:00.911Z,99206.56
2022-08-02T20:21:35.573Z,99203.81
2022-08-02T20:24:05.496Z,99207.78
2022-08-02T20:26:35.703Z,99202.41
2022-08-02T20:31:50.486Z,99203.00
2022-08-02T20:34:17.414Z,99200.69
2022-08-02T20:36:45.807Z,99202.19
2022-08-02T20:39:21.354Z,99201.47
2022-08-02T20:41:52.960Z,99212.53
2022-08-02T20:44:30.567Z,99208.69
2022-08-02T20:46:59.245Z,99207.16
2022-08-02T20:49:41.809Z,99203.81
2022-08-02T20:54:55.937Z,99197.84
2022-08-02T20:57:48.459Z,99211.03
2022-08-02T21:00:10.018Z,99208.06
2022-08-02T21:02:37.483Z,99206.34
2022-08-02T21:05:07.851Z,99213.66
2022-08-02T21:07:47.675Z,99200.88
2022-08-02T21:10:20.554Z,99202.28
2022-08-02T21:13:01.248Z,99203.00
2022-08-02T21:15:46.266Z,99210.41
2022-08-02T21:18:19.255Z,99199.03
2022-08-02T21:20:51.059Z,99201.69
2022-08-02T21:26:09.104Z,99210.19
2022-08-02T21:28:44.995Z,99201.47
2022-08-02T21:31:15.826Z,99203.41
2022-08-02T21:33:57.762Z,99208.97
2022-08-02T21:36:31.267Z,99206.31
2022-08-02T21:39:04.767Z,99208.66
2022-08-02T21:41:39.099Z,99216.94
2022-08-02T21:44:13.235Z,99215.09
2022-08-02T21:46:44.372Z,99214.91
2022-08-02T21:49:12.465Z,99216.09
2022-08-02T21:54:27.912Z,99220.47
2022-08-02T21:56:57.729Z,99215.06
2022-08-02T21:59:26.700Z,99213.22
2022-08-02T22:02:00.326Z,99216.13
2022-08-02T22:04:27.573Z,99215.41
2022-08-02T22:06:55.295Z,99226.13
2022-08-02T22:09:43.506Z,99221.22
2022-08-02T22:12:12.679Z,99227.91
2022-08-02T22:14:44.100Z,99221.91
2022-08-02T22:17:16.753Z,99224.50
2022-08-02T22:19:51.113Z,99226.25
2022-08-02T22:22:28.058Z,99219.47
2022-08-02T22:24:55.114Z,99224.34
2022-08-02T22:27:23.665Z,99227.00
2022-08-02T22:30:10.859Z,99229.97
2022-08-02T22:32:56.529Z,99230.19
2022-08-02T22:35:23.474Z,99226.44
2022-08-02T22:38:14.569Z,99225.38
2022-08-02T22:40:37.261Z,99233.34
2022-08-02T22:43:06.283Z,99226.53
2022-08-02T22:45:37.468Z,99225.53
2022-08-02T22:48:04.995Z,99220.94
2022-08-02T22:50:32.273Z,99224.53
2022-08-02T22:52:59.143Z,99221.88
2022-08-02T22:55:32.633Z,99225.47
2022-08-02T22:57:59.744Z,99227.16
2022-08-02T22:58:38.702Z,99175.84
2022-08-02T22:59:02.553Z,99211.44
2022-08-02T22:59:11.607Z,99217.56
2022-08-02T23:00:26.692Z,99220.38
2022-08-02T23:02:53.571Z,99223.09
2022-08-02T23:05:21.774Z,99220.97
2022-08-02T23:07:49.951Z,99220.13
2022-08-02T23:10:16.965Z,99229.97
2022-08-02T23:12:43.964Z,99231.38
2022-08-02T23:15:11.156Z,99227.28
2022-08-02T23:17:56.431Z,99233.31
2022-08-02T23:20:25.125Z,99233.31
2022-08-02T23:22:52.004Z,99233.91
2022-08-02T23:25:23.233Z,99230.66
2022-08-02T23:27:51.312Z,99238.84
2022-08-02T23:30:18.863Z,99236.94
2022-08-02T23:32:47.692Z,99244.03
2022-08-02T23:35:16.654Z,99246.22
2022-08-02T23:37:58.361Z,99241.94
2022-08-02T23:40:38.859Z,99249.66
2022-08-02T23:43:13.338Z,99254.91
2022-08-02T23:45:46.173Z,99261.25
2022-08-02T23:48:13.382Z,99261.25
2022-08-02T23:50:40.180Z,99260.13
2022-08-02T23:53:07.018Z,99261.47
2022-08-02T23:55:33.935Z,99264.66
2022-08-02T23:58:00.742Z,99260.75
